sensor_id;sensor_type;location;lat;lon;timestamp;P1;durP1;ratioP1;P2;durP2;ratioP2
65667;SDS011;52369;52.542;13.232;2023-12-20T00:01:31;7.15;;;4.30;;
65667;SDS011;52369;52.542;13.232;2023-12-20T00:03:57;8.07;;;4.60;;
65667;SDS011;52369;52.542;13.232;2023-12-20T00:06:23;6.70;;;3.92;;
65667;SDS011;52369;52.542;13.232;2023-12-20T00:08:49;7.47;;;4.20;;
65667;SDS011;52369;52.542;13.232;2023-12-20T00:11:15;8.43;;;4.53;;
65667;SDS011;52369;52.542;13.232;2023-12-20T00:13:41;7.10;;;4.00;;
65667;SDS011;52369;52.542;13.232;2023-12-20T00:16:07;7.38;;;4.22;;
65667;SDS011;52369;52.542;13.232;2023-12-20T00:18:33;8.07;;;4.45;;
65667;SDS011;52369;52.542;13.232;2023-12-20T00:20:59;5.85;;;3.67;;
65667;SDS011;52369;52.542;13.232;2023-12-20T00:23:25;7.63;;;4.20;;
65667;SDS011;52369;52.542;13.232;2023-12-20T00:25:51;8.05;;;4.40;;
65667;SDS011;52369;52.542;13.232;2023-12-20T00:28:17;9.23;;;4.22;;
65667;SDS011;52369;52.542;13.232;2023-12-20T00:30:43;8.82;;;4.28;;
65667;SDS011;52369;52.542;13.232;2023-12-20T00:33:09;7.68;;;4.25;;
65667;SDS011;52369;52.542;13.232;2023-12-20T00:35:35;7.50;;;4.03;;
65667;SDS011;52369;52.542;13.232;2023-12-20T00:38:02;8.60;;;4.55;;
65667;SDS011;52369;52.542;13.232;2023-12-20T00:40:30;8.95;;;4.43;;
65667;SDS011;52369;52.542;13.232;2023-12-20T00:42:56;7.65;;;4.15;;
65667;SDS011;52369;52.542;13.232;2023-12-20T00:45:22;7.63;;;3.85;;
65667;SDS011;52369;52.542;13.232;2023-12-20T00:47:48;6.88;;;4.13;;
65667;SDS011;52369;52.542;13.232;2023-12-20T00:50:14;8.30;;;3.88;;
65667;SDS011;52369;52.542;13.232;2023-12-20T00:52:40;7.72;;;3.70;;
65667;SDS011;52369;52.542;13.232;2023-12-20T00:55:06;7.20;;;4.25;;
65667;SDS011;52369;52.542;13.232;2023-12-20T00:57:32;7.30;;;4.28;;
65667;SDS011;52369;52.542;13.232;2023-12-20T00:59:58;7.28;;;4.18;;
65667;SDS011;52369;52.542;13.232;2023-12-20T01:02:24;8.70;;;4.72;;
65667;SDS011;52369;52.542;13.232;2023-12-20T01:04:50;8.57;;;3.88;;
65667;SDS011;52369;52.542;13.232;2023-12-20T01:07:17;9.98;;;4.60;;
65667;SDS011;52369;52.542;13.232;2023-12-20T01:09:43;8.60;;;4.47;;
65667;SDS011;52369;52.542;13.232;2023-12-20T01:12:09;8.60;;;4.55;;
65667;SDS011;52369;52.542;13.232;2023-12-20T01:14:35;8.82;;;4.63;;
65667;SDS011;52369;52.542;13.232;2023-12-20T01:17:01;8.00;;;4.13;;
65667;SDS011;52369;52.542;13.232;2023-12-20T01:19:27;8.00;;;3.90;;
65667;SDS011;52369;52.542;13.232;2023-12-20T01:21:54;8.40;;;4.00;;
65667;SDS011;52369;52.542;13.232;2023-12-20T01:24:20;7.40;;;4.18;;
65667;SDS011;52369;52.542;13.232;2023-12-20T01:26:46;9.38;;;4.25;;
65667;SDS011;52369;52.542;13.232;2023-12-20T01:29:13;8.45;;;4.10;;
65667;SDS011;52369;52.542;13.232;2023-12-20T01:31:40;8.38;;;4.07;;
65667;SDS011;52369;52.542;13.232;2023-12-20T01:34:06;6.80;;;4.15;;
65667;SDS011;52369;52.542;13.232;2023-12-20T01:36:32;7.25;;;4.15;;
65667;SDS011;52369;52.542;13.232;2023-12-20T01:38:58;7.38;;;3.72;;
65667;SDS011;52369;52.542;13.232;2023-12-20T01:41:24;8.30;;;4.10;;
65667;SDS011;52369;52.542;13.232;2023-12-20T01:43:50;8.20;;;4.38;;
65667;SDS011;52369;52.542;13.232;2023-12-20T01:46:18;6.30;;;4.00;;
65667;SDS011;52369;52.542;13.232;2023-12-20T01:48:44;7.13;;;3.90;;
65667;SDS011;52369;52.542;13.232;2023-12-20T01:51:10;8.65;;;4.30;;
65667;SDS011;52369;52.542;13.232;2023-12-20T01:53:36;6.15;;;3.67;;
65667;SDS011;52369;52.542;13.232;2023-12-20T01:56:03;3.97;;;2.53;;
65667;SDS011;52369;52.542;13.232;2023-12-20T01:58:30;6.15;;;2.38;;
65667;SDS011;52369;52.542;13.232;2023-12-20T02:00:56;5.13;;;2.67;;
65667;SDS011;52369;52.542;13.232;2023-12-20T02:03:23;5.93;;;2.85;;
65667;SDS011;52369;52.542;13.232;2023-12-20T02:05:49;6.68;;;3.15;;
65667;SDS011;52369;52.542;13.232;2023-12-20T02:08:15;4.82;;;2.72;;
65667;SDS011;52369;52.542;13.232;2023-12-20T02:10:41;6.55;;;3.33;;
65667;SDS011;52369;52.542;13.232;2023-12-20T02:13:08;4.25;;;2.67;;
65667;SDS011;52369;52.542;13.232;2023-12-20T02:15:34;5.60;;;3.08;;
65667;SDS011;52369;52.542;13.232;2023-12-20T02:18:02;5.97;;;3.08;;
65667;SDS011;52369;52.542;13.232;2023-12-20T02:20:28;5.53;;;3.03;;
65667;SDS011;52369;52.542;13.232;2023-12-20T02:22:54;5.80;;;2.97;;
65667;SDS011;52369;52.542;13.232;2023-12-20T02:25:20;6.82;;;3.25;;
65667;SDS011;52369;52.542;13.232;2023-12-20T02:27:46;7.20;;;3.33;;
65667;SDS011;52369;52.542;13.232;2023-12-20T02:30:13;6.40;;;3.03;;
65667;SDS011;52369;52.542;13.232;2023-12-20T02:32:39;6.72;;;3.90;;
65667;SDS011;52369;52.542;13.232;2023-12-20T02:35:05;6.38;;;3.80;;
65667;SDS011;52369;52.542;13.232;2023-12-20T02:37:32;7.50;;;4.00;;
65667;SDS011;52369;52.542;13.232;2023-12-20T02:39:58;6.78;;;3.65;;
65667;SDS011;52369;52.542;13.232;2023-12-20T02:42:24;7.93;;;3.70;;
65667;SDS011;52369;52.542;13.232;2023-12-20T02:44:50;9.65;;;4.40;;
65667;SDS011;52369;52.542;13.232;2023-12-20T02:47:16;8.68;;;4.50;;
65667;SDS011;52369;52.542;13.232;2023-12-20T02:49:42;7.70;;;4.07;;
65667;SDS011;52369;52.542;13.232;2023-12-20T02:52:08;10.13;;;5.47;;
65667;SDS011;52369;52.542;13.232;2023-12-20T02:54:34;17.73;;;8.73;;
65667;SDS011;52369;52.542;13.232;2023-12-20T02:57:00;71.43;;;27.33;;
65667;SDS011;52369;52.542;13.232;2023-12-20T02:59:26;36.03;;;14.20;;
65667;SDS011;52369;52.542;13.232;2023-12-20T03:01:52;10.57;;;5.60;;
65667;SDS011;52369;52.542;13.232;2023-12-20T03:04:18;37.40;;;14.23;;
65667;SDS011;52369;52.542;13.232;2023-12-20T03:06:44;6.68;;;3.80;;
65667;SDS011;52369;52.542;13.232;2023-12-20T03:09:11;5.07;;;3.20;;
65667;SDS011;52369;52.542;13.232;2023-12-20T03:11:37;4.90;;;2.92;;
65667;SDS011;52369;52.542;13.232;2023-12-20T03:14:03;8.40;;;3.13;;
65667;SDS011;52369;52.542;13.232;2023-12-20T03:16:29;5.95;;;2.97;;
65667;SDS011;52369;52.542;13.232;2023-12-20T03:18:56;5.32;;;2.60;;
65667;SDS011;52369;52.542;13.232;2023-12-20T03:21:22;7.78;;;2.75;;
65667;SDS011;52369;52.542;13.232;2023-12-20T03:23:48;5.00;;;2.28;;
65667;SDS011;52369;52.542;13.232;2023-12-20T03:26:14;5.32;;;2.10;;
65667;SDS011;52369;52.542;13.232;2023-12-20T03:28:40;5.88;;;2.13;;
65667;SDS011;52369;52.542;13.232;2023-12-20T03:31:06;3.88;;;1.42;;
65667;SDS011;52369;52.542;13.232;2023-12-20T03:33:32;4.47;;;1.63;;
65667;SDS011;52369;52.542;13.232;2023-12-20T03:35:58;6.38;;;2.00;;
65667;SDS011;52369;52.542;13.232;2023-12-20T03:38:24;6.20;;;1.90;;
65667;SDS011;52369;52.542;13.232;2023-12-20T03:40:50;3.30;;;1.75;;
65667;SDS011;52369;52.542;13.232;2023-12-20T03:43:16;3.17;;;1.15;;
65667;SDS011;52369;52.542;13.232;2023-12-20T03:45:42;5.45;;;1.48;;
65667;SDS011;52369;52.542;13.232;2023-12-20T03:48:09;7.93;;;1.90;;
65667;SDS011;52369;52.542;13.232;2023-12-20T03:50:35;3.80;;;1.50;;
65667;SDS011;52369;52.542;13.232;2023-12-20T03:53:01;6.20;;;1.30;;
65667;SDS011;52369;52.542;13.232;2023-12-20T03:55:27;3.55;;;2.03;;
65667;SDS011;52369;52.542;13.232;2023-12-20T03:57:53;2.95;;;1.50;;
65667;SDS011;52369;52.542;13.232;2023-12-20T04:00:19;3.20;;;1.30;;
65667;SDS011;52369;52.542;13.232;2023-12-20T04:02:45;3.90;;;2.33;;
65667;SDS011;52369;52.542;13.232;2023-12-20T04:05:11;5.20;;;1.77;;
65667;SDS011;52369;52.542;13.232;2023-12-20T04:07:37;6.10;;;1.60;;
65667;SDS011;52369;52.542;13.232;2023-12-20T04:10:04;3.95;;;1.38;;
65667;SDS011;52369;52.542;13.232;2023-12-20T04:12:30;2.83;;;1.50;;
65667;SDS011;52369;52.542;13.232;2023-12-20T04:14:57;7.28;;;1.83;;
65667;SDS011;52369;52.542;13.232;2023-12-20T04:17:23;3.63;;;1.30;;
65667;SDS011;52369;52.542;13.232;2023-12-20T04:19:49;5.80;;;1.60;;
65667;SDS011;52369;52.542;13.232;2023-12-20T04:22:16;8.10;;;1.73;;
65667;SDS011;52369;52.542;13.232;2023-12-20T04:24:42;5.55;;;1.90;;
65667;SDS011;52369;52.542;13.232;2023-12-20T04:27:09;5.18;;;1.38;;
65667;SDS011;52369;52.542;13.232;2023-12-20T04:29:35;5.18;;;1.48;;
65667;SDS011;52369;52.542;13.232;2023-12-20T04:32:01;7.43;;;2.47;;
65667;SDS011;52369;52.542;13.232;2023-12-20T04:34:27;7.32;;;2.17;;
65667;SDS011;52369;52.542;13.232;2023-12-20T04:36:53;7.72;;;2.42;;
65667;SDS011;52369;52.542;13.232;2023-12-20T04:39:19;7.72;;;2.10;;
65667;SDS011;52369;52.542;13.232;2023-12-20T04:41:45;5.10;;;1.80;;
65667;SDS011;52369;52.542;13.232;2023-12-20T04:44:12;4.93;;;1.92;;
65667;SDS011;52369;52.542;13.232;2023-12-20T04:46:38;6.80;;;1.83;;
65667;SDS011;52369;52.542;13.232;2023-12-20T04:49:05;8.18;;;1.95;;
65667;SDS011;52369;52.542;13.232;2023-12-20T04:51:34;3.53;;;1.45;;
65667;SDS011;52369;52.542;13.232;2023-12-20T04:54:00;6.85;;;2.20;;
65667;SDS011;52369;52.542;13.232;2023-12-20T04:56:26;4.25;;;2.08;;
65667;SDS011;52369;52.542;13.232;2023-12-20T04:58:52;8.07;;;2.17;;
65667;SDS011;52369;52.542;13.232;2023-12-20T05:01:18;7.10;;;2.10;;
65667;SDS011;52369;52.542;13.232;2023-12-20T05:03:44;6.25;;;2.08;;
65667;SDS011;52369;52.542;13.232;2023-12-20T05:06:10;4.90;;;1.77;;
65667;SDS011;52369;52.542;13.232;2023-12-20T05:08:36;5.38;;;1.80;;
65667;SDS011;52369;52.542;13.232;2023-12-20T05:11:02;6.47;;;2.17;;
65667;SDS011;52369;52.542;13.232;2023-12-20T05:13:29;5.82;;;1.70;;
65667;SDS011;52369;52.542;13.232;2023-12-20T05:15:55;6.78;;;1.60;;
65667;SDS011;52369;52.542;13.232;2023-12-20T05:18:21;5.07;;;1.50;;
65667;SDS011;52369;52.542;13.232;2023-12-20T05:20:48;7.90;;;1.75;;
65667;SDS011;52369;52.542;13.232;2023-12-20T05:23:14;6.03;;;1.98;;
65667;SDS011;52369;52.542;13.232;2023-12-20T05:25:40;5.38;;;1.80;;
65667;SDS011;52369;52.542;13.232;2023-12-20T05:28:06;5.20;;;1.30;;
65667;SDS011;52369;52.542;13.232;2023-12-20T05:30:32;8.40;;;1.63;;
65667;SDS011;52369;52.542;13.232;2023-12-20T05:32:59;4.35;;;1.20;;
65667;SDS011;52369;52.542;13.232;2023-12-20T05:35:25;5.90;;;1.80;;
65667;SDS011;52369;52.542;13.232;2023-12-20T05:37:51;6.07;;;1.70;;
65667;SDS011;52369;52.542;13.232;2023-12-20T05:40:17;4.57;;;1.30;;
65667;SDS011;52369;52.542;13.232;2023-12-20T05:42:43;10.25;;;1.92;;
65667;SDS011;52369;52.542;13.232;2023-12-20T05:45:09;7.47;;;1.40;;
65667;SDS011;52369;52.542;13.232;2023-12-20T05:47:36;6.10;;;1.92;;
65667;SDS011;52369;52.542;13.232;2023-12-20T05:50:02;6.78;;;1.70;;
65667;SDS011;52369;52.542;13.232;2023-12-20T05:52:29;5.85;;;1.50;;
65667;SDS011;52369;52.542;13.232;2023-12-20T05:54:55;7.57;;;1.88;;
65667;SDS011;52369;52.542;13.232;2023-12-20T05:57:23;7.40;;;2.20;;
65667;SDS011;52369;52.542;13.232;2023-12-20T05:59:49;10.57;;;1.83;;
65667;SDS011;52369;52.542;13.232;2023-12-20T06:02:15;6.18;;;1.50;;
65667;SDS011;52369;52.542;13.232;2023-12-20T06:04:44;4.85;;;1.70;;
65667;SDS011;52369;52.542;13.232;2023-12-20T06:07:13;6.28;;;2.03;;
65667;SDS011;52369;52.542;13.232;2023-12-20T06:09:39;5.50;;;1.75;;
65667;SDS011;52369;52.542;13.232;2023-12-20T06:12:06;7.38;;;1.92;;
65667;SDS011;52369;52.542;13.232;2023-12-20T06:14:33;8.73;;;2.78;;
65667;SDS011;52369;52.542;13.232;2023-12-20T06:16:59;5.55;;;1.50;;
65667;SDS011;52369;52.542;13.232;2023-12-20T06:19:26;6.80;;;2.35;;
65667;SDS011;52369;52.542;13.232;2023-12-20T06:21:52;4.65;;;1.58;;
65667;SDS011;52369;52.542;13.232;2023-12-20T06:24:18;5.45;;;1.65;;
65667;SDS011;52369;52.542;13.232;2023-12-20T06:26:44;3.22;;;1.55;;
65667;SDS011;52369;52.542;13.232;2023-12-20T06:29:10;6.90;;;2.08;;
65667;SDS011;52369;52.542;13.232;2023-12-20T06:31:36;8.50;;;2.00;;
65667;SDS011;52369;52.542;13.232;2023-12-20T06:34:02;9.60;;;2.17;;
65667;SDS011;52369;52.542;13.232;2023-12-20T06:36:28;3.58;;;1.75;;
65667;SDS011;52369;52.542;13.232;2023-12-20T06:38:54;7.70;;;2.08;;
65667;SDS011;52369;52.542;13.232;2023-12-20T06:41:20;5.82;;;2.60;;
65667;SDS011;52369;52.542;13.232;2023-12-20T06:43:46;7.05;;;1.73;;
65667;SDS011;52369;52.542;13.232;2023-12-20T06:46:12;6.38;;;1.88;;
65667;SDS011;52369;52.542;13.232;2023-12-20T06:48:38;5.93;;;2.47;;
65667;SDS011;52369;52.542;13.232;2023-12-20T06:51:05;5.13;;;1.95;;
65667;SDS011;52369;52.542;13.232;2023-12-20T06:53:31;4.80;;;1.95;;
65667;SDS011;52369;52.542;13.232;2023-12-20T06:55:57;4.40;;;1.98;;
65667;SDS011;52369;52.542;13.232;2023-12-20T06:58:23;7.90;;;2.55;;
65667;SDS011;52369;52.542;13.232;2023-12-20T07:00:50;3.58;;;1.60;;
65667;SDS011;52369;52.542;13.232;2023-12-20T07:03:19;4.68;;;2.58;;
65667;SDS011;52369;52.542;13.232;2023-12-20T07:05:45;12.15;;;2.30;;
65667;SDS011;52369;52.542;13.232;2023-12-20T07:08:11;6.45;;;1.98;;
65667;SDS011;52369;52.542;13.232;2023-12-20T07:10:39;9.23;;;2.20;;
65667;SDS011;52369;52.542;13.232;2023-12-20T07:13:05;8.40;;;2.13;;
65667;SDS011;52369;52.542;13.232;2023-12-20T07:15:31;5.28;;;1.77;;
65667;SDS011;52369;52.542;13.232;2023-12-20T07:17:57;7.40;;;2.00;;
65667;SDS011;52369;52.542;13.232;2023-12-20T07:20:25;7.82;;;2.10;;
65667;SDS011;52369;52.542;13.232;2023-12-20T07:22:51;3.88;;;2.20;;
65667;SDS011;52369;52.542;13.232;2023-12-20T07:25:17;8.55;;;1.98;;
65667;SDS011;52369;52.542;13.232;2023-12-20T07:27:45;4.68;;;1.90;;
65667;SDS011;52369;52.542;13.232;2023-12-20T07:30:11;9.07;;;2.20;;
65667;SDS011;52369;52.542;13.232;2023-12-20T07:32:37;4.68;;;1.80;;
65667;SDS011;52369;52.542;13.232;2023-12-20T07:35:03;7.25;;;1.77;;
65667;SDS011;52369;52.542;13.232;2023-12-20T07:37:30;6.85;;;2.08;;
65667;SDS011;52369;52.542;13.232;2023-12-20T07:39:56;7.22;;;1.90;;
65667;SDS011;52369;52.542;13.232;2023-12-20T07:42:22;11.70;;;2.60;;
65667;SDS011;52369;52.542;13.232;2023-12-20T07:44:48;6.93;;;2.67;;
65667;SDS011;52369;52.542;13.232;2023-12-20T07:47:14;7.60;;;2.13;;
65667;SDS011;52369;52.542;13.232;2023-12-20T07:49:43;5.60;;;2.05;;
65667;SDS011;52369;52.542;13.232;2023-12-20T07:52:09;10.55;;;1.90;;
65667;SDS011;52369;52.542;13.232;2023-12-20T07:54:35;6.05;;;1.98;;
65667;SDS011;52369;52.542;13.232;2023-12-20T07:57:01;10.45;;;2.35;;
65667;SDS011;52369;52.542;13.232;2023-12-20T07:59:28;5.90;;;1.90;;
65667;SDS011;52369;52.542;13.232;2023-12-20T08:01:54;5.18;;;1.67;;
65667;SDS011;52369;52.542;13.232;2023-12-20T08:04:20;7.30;;;1.60;;
65667;SDS011;52369;52.542;13.232;2023-12-20T08:06:47;8.43;;;1.77;;
65667;SDS011;52369;52.542;13.232;2023-12-20T08:09:13;8.05;;;1.90;;
65667;SDS011;52369;52.542;13.232;2023-12-20T08:11:39;5.30;;;2.03;;
65667;SDS011;52369;52.542;13.232;2023-12-20T08:14:05;6.00;;;2.00;;
65667;SDS011;52369;52.542;13.232;2023-12-20T08:16:31;6.00;;;1.60;;
65667;SDS011;52369;52.542;13.232;2023-12-20T08:18:57;9.68;;;2.42;;
65667;SDS011;52369;52.542;13.232;2023-12-20T08:21:23;5.57;;;1.73;;
65667;SDS011;52369;52.542;13.232;2023-12-20T08:23:49;6.07;;;1.75;;
65667;SDS011;52369;52.542;13.232;2023-12-20T08:26:18;6.03;;;1.80;;
65667;SDS011;52369;52.542;13.232;2023-12-20T08:28:45;8.20;;;1.85;;
65667;SDS011;52369;52.542;13.232;2023-12-20T08:31:14;8.52;;;2.03;;
65667;SDS011;52369;52.542;13.232;2023-12-20T08:33:41;6.95;;;1.50;;
65667;SDS011;52369;52.542;13.232;2023-12-20T08:36:07;5.40;;;2.00;;
65667;SDS011;52369;52.542;13.232;2023-12-20T08:38:34;5.63;;;1.48;;
65667;SDS011;52369;52.542;13.232;2023-12-20T08:41:00;7.53;;;1.67;;
65667;SDS011;52369;52.542;13.232;2023-12-20T08:43:27;5.85;;;1.70;;
65667;SDS011;52369;52.542;13.232;2023-12-20T08:45:53;5.72;;;1.60;;
65667;SDS011;52369;52.542;13.232;2023-12-20T08:48:19;5.78;;;1.75;;
65667;SDS011;52369;52.542;13.232;2023-12-20T08:50:45;8.32;;;2.17;;
65667;SDS011;52369;52.542;13.232;2023-12-20T08:53:13;7.53;;;2.10;;
65667;SDS011;52369;52.542;13.232;2023-12-20T08:55:41;2.65;;;1.30;;
65667;SDS011;52369;52.542;13.232;2023-12-20T08:58:07;5.40;;;1.65;;
65667;SDS011;52369;52.542;13.232;2023-12-20T09:00:33;3.67;;;1.20;;
65667;SDS011;52369;52.542;13.232;2023-12-20T09:03:00;7.30;;;1.90;;
65667;SDS011;52369;52.542;13.232;2023-12-20T09:05:27;4.68;;;1.70;;
65667;SDS011;52369;52.542;13.232;2023-12-20T09:07:53;7.38;;;2.25;;
65667;SDS011;52369;52.542;13.232;2023-12-20T09:10:19;6.90;;;1.98;;
65667;SDS011;52369;52.542;13.232;2023-12-20T09:12:50;6.47;;;1.48;;
65667;SDS011;52369;52.542;13.232;2023-12-20T09:15:17;7.55;;;1.88;;
65667;SDS011;52369;52.542;13.232;2023-12-20T09:17:43;8.95;;;1.80;;
65667;SDS011;52369;52.542;13.232;2023-12-20T09:20:09;7.72;;;1.67;;
65667;SDS011;52369;52.542;13.232;2023-12-20T09:22:35;6.03;;;1.30;;
65667;SDS011;52369;52.542;13.232;2023-12-20T09:25:03;6.82;;;1.48;;
65667;SDS011;52369;52.542;13.232;2023-12-20T09:27:29;10.32;;;2.42;;
65667;SDS011;52369;52.542;13.232;2023-12-20T09:29:55;5.85;;;1.60;;
65667;SDS011;52369;52.542;13.232;2023-12-20T09:32:21;6.47;;;2.10;;
65667;SDS011;52369;52.542;13.232;2023-12-20T09:34:47;7.97;;;2.90;;
65667;SDS011;52369;52.542;13.232;2023-12-20T09:37:13;8.30;;;2.05;;
65667;SDS011;52369;52.542;13.232;2023-12-20T09:39:39;6.70;;;1.77;;
65667;SDS011;52369;52.542;13.232;2023-12-20T09:42:06;7.40;;;2.22;;
65667;SDS011;52369;52.542;13.232;2023-12-20T09:44:32;6.05;;;1.77;;
65667;SDS011;52369;52.542;13.232;2023-12-20T09:47:02;4.47;;;1.55;;
65667;SDS011;52369;52.542;13.232;2023-12-20T09:49:29;6.38;;;1.80;;
65667;SDS011;52369;52.542;13.232;2023-12-20T09:51:56;12.25;;;2.63;;
65667;SDS011;52369;52.542;13.232;2023-12-20T09:54:22;5.63;;;2.00;;
65667;SDS011;52369;52.542;13.232;2023-12-20T09:56:49;8.18;;;1.80;;
65667;SDS011;52369;52.542;13.232;2023-12-20T09:59:15;6.13;;;2.10;;
65667;SDS011;52369;52.542;13.232;2023-12-20T10:01:41;13.10;;;1.92;;
65667;SDS011;52369;52.542;13.232;2023-12-20T10:04:08;10.27;;;2.22;;
65667;SDS011;52369;52.542;13.232;2023-12-20T10:06:40;7.70;;;2.20;;
65667;SDS011;52369;52.542;13.232;2023-12-20T10:09:06;8.30;;;1.95;;
65667;SDS011;52369;52.542;13.232;2023-12-20T10:11:32;7.03;;;1.75;;
65667;SDS011;52369;52.542;13.232;2023-12-20T10:13:59;6.95;;;2.17;;
65667;SDS011;52369;52.542;13.232;2023-12-20T10:16:26;5.25;;;1.70;;
65667;SDS011;52369;52.542;13.232;2023-12-20T10:18:55;6.05;;;1.65;;
65667;SDS011;52369;52.542;13.232;2023-12-20T10:21:22;8.48;;;2.10;;
65667;SDS011;52369;52.542;13.232;2023-12-20T10:23:49;4.07;;;1.60;;
65667;SDS011;52369;52.542;13.232;2023-12-20T10:26:19;5.05;;;1.98;;
65667;SDS011;52369;52.542;13.232;2023-12-20T10:28:46;5.45;;;2.03;;
65667;SDS011;52369;52.542;13.232;2023-12-20T10:31:26;11.57;;;2.30;;
65667;SDS011;52369;52.542;13.232;2023-12-20T10:33:52;7.18;;;1.60;;
65667;SDS011;52369;52.542;13.232;2023-12-20T10:36:18;6.82;;;1.80;;
65667;SDS011;52369;52.542;13.232;2023-12-20T10:38:45;8.73;;;1.58;;
65667;SDS011;52369;52.542;13.232;2023-12-20T10:41:12;8.73;;;1.90;;
65667;SDS011;52369;52.542;13.232;2023-12-20T10:43:42;4.75;;;1.55;;
65667;SDS011;52369;52.542;13.232;2023-12-20T10:46:08;3.85;;;1.40;;
65667;SDS011;52369;52.542;13.232;2023-12-20T10:48:34;9.57;;;2.38;;
65667;SDS011;52369;52.542;13.232;2023-12-20T10:51:00;8.32;;;1.83;;
65667;SDS011;52369;52.542;13.232;2023-12-20T10:53:27;8.45;;;2.58;;
65667;SDS011;52369;52.542;13.232;2023-12-20T10:55:55;12.63;;;2.58;;
65667;SDS011;52369;52.542;13.232;2023-12-20T10:58:24;6.68;;;2.20;;
65667;SDS011;52369;52.542;13.232;2023-12-20T11:00:50;8.88;;;2.50;;
65667;SDS011;52369;52.542;13.232;2023-12-20T11:03:21;13.80;;;2.60;;
65667;SDS011;52369;52.542;13.232;2023-12-20T11:06:00;7.10;;;2.17;;
65667;SDS011;52369;52.542;13.232;2023-12-20T11:08:32;10.23;;;2.25;;
65667;SDS011;52369;52.542;13.232;2023-12-20T11:11:01;10.98;;;2.13;;
65667;SDS011;52369;52.542;13.232;2023-12-20T11:13:30;13.32;;;3.60;;
65667;SDS011;52369;52.542;13.232;2023-12-20T11:15:57;7.47;;;2.38;;
65667;SDS011;52369;52.542;13.232;2023-12-20T11:18:29;5.72;;;1.90;;
65667;SDS011;52369;52.542;13.232;2023-12-20T11:20:55;4.05;;;2.38;;
65667;SDS011;52369;52.542;13.232;2023-12-20T11:23:26;3.85;;;1.90;;
65667;SDS011;52369;52.542;13.232;2023-12-20T11:25:53;6.78;;;2.17;;
65667;SDS011;52369;52.542;13.232;2023-12-20T11:28:23;6.82;;;2.00;;
65667;SDS011;52369;52.542;13.232;2023-12-20T11:31:00;5.38;;;2.28;;
65667;SDS011;52369;52.542;13.232;2023-12-20T11:35:55;7.80;;;2.70;;
65667;SDS011;52369;52.542;13.232;2023-12-20T11:38:21;8.20;;;2.45;;
65667;SDS011;52369;52.542;13.232;2023-12-20T11:40:48;9.52;;;2.30;;
65667;SDS011;52369;52.542;13.232;2023-12-20T11:46:06;12.02;;;3.08;;
65667;SDS011;52369;52.542;13.232;2023-12-20T11:50:59;8.45;;;2.30;;
65667;SDS011;52369;52.542;13.232;2023-12-20T11:53:25;6.80;;;2.35;;
65667;SDS011;52369;52.542;13.232;2023-12-20T11:55:51;8.35;;;2.58;;
65667;SDS011;52369;52.542;13.232;2023-12-20T11:58:17;11.13;;;3.05;;
65667;SDS011;52369;52.542;13.232;2023-12-20T12:00:43;6.57;;;2.05;;
65667;SDS011;52369;52.542;13.232;2023-12-20T12:03:09;6.90;;;2.10;;
65667;SDS011;52369;52.542;13.232;2023-12-20T12:05:35;6.90;;;2.47;;
65667;SDS011;52369;52.542;13.232;2023-12-20T12:08:02;6.40;;;2.33;;
65667;SDS011;52369;52.542;13.232;2023-12-20T12:10:28;8.40;;;2.45;;
65667;SDS011;52369;52.542;13.232;2023-12-20T12:12:55;7.20;;;2.50;;
65667;SDS011;52369;52.542;13.232;2023-12-20T12:15:21;5.93;;;1.85;;
65667;SDS011;52369;52.542;13.232;2023-12-20T12:17:53;7.35;;;2.22;;
65667;SDS011;52369;52.542;13.232;2023-12-20T12:20:20;5.72;;;2.03;;
65667;SDS011;52369;52.542;13.232;2023-12-20T12:22:56;6.65;;;2.35;;
65667;SDS011;52369;52.542;13.232;2023-12-20T12:25:23;8.52;;;2.50;;
65667;SDS011;52369;52.542;13.232;2023-12-20T12:27:49;6.15;;;2.25;;
65667;SDS011;52369;52.542;13.232;2023-12-20T12:30:16;5.55;;;2.30;;
65667;SDS011;52369;52.542;13.232;2023-12-20T12:32:43;7.40;;;2.05;;
65667;SDS011;52369;52.542;13.232;2023-12-20T12:35:10;6.32;;;2.08;;
65667;SDS011;52369;52.542;13.232;2023-12-20T12:37:39;6.90;;;2.63;;
65667;SDS011;52369;52.542;13.232;2023-12-20T12:40:15;5.40;;;2.22;;
65667;SDS011;52369;52.542;13.232;2023-12-20T12:42:42;7.70;;;2.22;;
65667;SDS011;52369;52.542;13.232;2023-12-20T12:45:08;9.20;;;2.83;;
65667;SDS011;52369;52.542;13.232;2023-12-20T12:47:35;6.95;;;2.50;;
65667;SDS011;52369;52.542;13.232;2023-12-20T12:50:01;4.95;;;2.28;;
65667;SDS011;52369;52.542;13.232;2023-12-20T12:52:27;6.68;;;2.70;;
65667;SDS011;52369;52.542;13.232;2023-12-20T12:54:53;6.18;;;3.08;;
65667;SDS011;52369;52.542;13.232;2023-12-20T12:57:20;7.30;;;2.20;;
65667;SDS011;52369;52.542;13.232;2023-12-20T12:59:46;4.28;;;2.42;;
65667;SDS011;52369;52.542;13.232;2023-12-20T13:02:12;4.20;;;2.20;;
65667;SDS011;52369;52.542;13.232;2023-12-20T13:04:39;9.30;;;2.90;;
65667;SDS011;52369;52.542;13.232;2023-12-20T13:07:06;6.75;;;2.70;;
65667;SDS011;52369;52.542;13.232;2023-12-20T13:09:32;6.95;;;2.53;;
65667;SDS011;52369;52.542;13.232;2023-12-20T13:11:58;4.97;;;2.55;;
65667;SDS011;52369;52.542;13.232;2023-12-20T13:14:24;9.70;;;3.25;;
65667;SDS011;52369;52.542;13.232;2023-12-20T13:16:50;7.78;;;2.22;;
65667;SDS011;52369;52.542;13.232;2023-12-20T13:19:16;3.50;;;1.33;;
65667;SDS011;52369;52.542;13.232;2023-12-20T13:21:42;2.85;;;1.15;;
65667;SDS011;52369;52.542;13.232;2023-12-20T13:24:08;1.80;;;0.85;;
65667;SDS011;52369;52.542;13.232;2023-12-20T13:26:34;3.53;;;1.40;;
65667;SDS011;52369;52.542;13.232;2023-12-20T13:29:01;2.63;;;1.42;;
65667;SDS011;52369;52.542;13.232;2023-12-20T13:31:27;2.35;;;0.70;;
65667;SDS011;52369;52.542;13.232;2023-12-20T13:33:53;2.05;;;0.93;;
65667;SDS011;52369;52.542;13.232;2023-12-20T13:36:19;1.15;;;0.70;;
65667;SDS011;52369;52.542;13.232;2023-12-20T13:38:45;3.22;;;0.90;;
65667;SDS011;52369;52.542;13.232;2023-12-20T13:41:11;1.63;;;0.70;;
65667;SDS011;52369;52.542;13.232;2023-12-20T13:43:37;1.60;;;0.88;;
65667;SDS011;52369;52.542;13.232;2023-12-20T13:46:03;2.45;;;1.00;;
65667;SDS011;52369;52.542;13.232;2023-12-20T13:48:29;1.15;;;0.70;;
65667;SDS011;52369;52.542;13.232;2023-12-20T13:50:55;3.72;;;1.52;;
65667;SDS011;52369;52.542;13.232;2023-12-20T13:53:22;1.92;;;1.00;;
65667;SDS011;52369;52.542;13.232;2023-12-20T13:55:48;3.47;;;1.63;;
65667;SDS011;52369;52.542;13.232;2023-12-20T13:58:14;1.08;;;0.82;;
65667;SDS011;52369;52.542;13.232;2023-12-20T14:00:40;3.70;;;1.17;;
65667;SDS011;52369;52.542;13.232;2023-12-20T14:03:06;1.92;;;0.75;;
65667;SDS011;52369;52.542;13.232;2023-12-20T14:05:35;3.13;;;1.00;;
65667;SDS011;52369;52.542;13.232;2023-12-20T14:08:01;1.48;;;0.70;;
65667;SDS011;52369;52.542;13.232;2023-12-20T14:10:27;1.42;;;0.70;;
65667;SDS011;52369;52.542;13.232;2023-12-20T14:12:53;0.85;;;0.40;;
65667;SDS011;52369;52.542;13.232;2023-12-20T14:15:20;1.75;;;0.75;;
65667;SDS011;52369;52.542;13.232;2023-12-20T14:17:46;1.52;;;0.70;;
65667;SDS011;52369;52.542;13.232;2023-12-20T14:20:12;0.93;;;0.70;;
65667;SDS011;52369;52.542;13.232;2023-12-20T14:22:38;3.42;;;0.90;;
65667;SDS011;52369;52.542;13.232;2023-12-20T14:25:10;2.28;;;0.65;;
65667;SDS011;52369;52.542;13.232;2023-12-20T14:27:37;4.60;;;1.75;;
65667;SDS011;52369;52.542;13.232;2023-12-20T14:30:03;3.97;;;1.08;;
65667;SDS011;52369;52.542;13.232;2023-12-20T14:32:29;1.50;;;0.60;;
65667;SDS011;52369;52.542;13.232;2023-12-20T14:34:55;1.88;;;1.05;;
65667;SDS011;52369;52.542;13.232;2023-12-20T14:37:21;1.92;;;0.60;;